Time;durP1;ratioP1;P1;durP2;ratioP2;P2;SDS_P1;SDS_P2;PMS_P1;PMS_P2;Temp;Humidity;BMP_temperature;BMP_pressure;BME280_temperature;BME280_humidity;BME280_pressure;Samples;Min_cycle;Max_cycle;Signal;HPM_P1;HPM_P2
2021/10/13 00:01:22;;;;;;;4.93;1.23;;;7.50;99.90;;;8.17;74.41;101269.53;5080945;28;20262;-76
2021/10/13 00:03:50;;;;;;;3.25;1.30;;;7.50;99.90;;;8.16;74.74;101273.03;5078570;28;20203;-76
2021/10/13 00:06:21;;;;;;;6.05;1.20;;;7.50;99.90;;;8.12;74.49;101274.81;5081014;28;20196;-75
2021/10/13 00:08:47;;;;;;;4.10;1.13;;;7.50;99.90;;;8.10;75.04;101280.97;5074588;28;20188;-77
2021/10/13 00:11:15;;;;;;;4.50;1.08;;;7.50;99.90;;;8.07;75.27;101273.22;5073791;28;20749;-76
2021/10/13 00:13:42;;;;;;;4.53;1.38;;;7.40;99.90;;;8.08;75.30;101277.53;5085801;28;20230;-74
2021/10/13 00:16:13;;;;;;;3.75;1.13;;;7.40;99.90;;;8.09;75.26;101279.25;5071539;28;20199;-76
2021/10/13 00:18:41;;;;;;;3.92;1.38;;;7.40;99.90;;;8.02;75.27;101278.47;5082643;28;20188;-76
2021/10/13 00:21:17;;;;;;;3.25;1.13;;;7.40;99.90;;;8.01;75.40;101289.81;5062961;28;20199;-76
2021/10/13 00:23:45;;;;;;;5.18;1.48;;;7.40;99.90;;;7.99;75.42;101293.34;5072213;28;20209;-76
2021/10/13 00:26:12;;;;;;;3.42;1.20;;;7.40;99.90;;;7.96;76.00;101293.38;5093569;28;20212;-77
2021/10/13 00:28:39;;;;;;;3.28;1.13;;;7.30;99.90;;;7.94;75.81;101295.16;5067142;28;20197;-74
2021/10/13 00:31:07;;;;;;;4.45;1.35;;;7.30;99.90;;;7.93;76.05;101288.22;5076357;28;20200;-76
2021/10/13 00:33:37;;;;;;;4.78;1.35;;;7.30;99.90;;;7.92;76.09;101291.72;5062724;28;20228;-76
2021/10/13 00:36:04;;;;;;;4.80;1.45;;;7.30;99.90;;;7.92;76.13;101296.94;5077052;28;20619;-78
2021/10/13 00:38:31;;;;;;;3.72;1.20;;;7.30;99.90;;;7.89;76.32;101297.84;5064085;28;20200;-78
2021/10/13 00:40:59;;;;;;;4.82;1.10;;;7.20;99.90;;;7.87;76.47;101298.75;5075364;28;20191;-77
2021/10/13 00:43:26;;;;;;;6.45;1.42;;;7.20;99.90;;;7.86;76.62;101304.84;5094242;28;20834;-78
2021/10/13 00:45:55;;;;;;;6.72;1.52;;;7.20;99.90;;;7.85;76.65;101295.31;5089084;28;20558;-79
2021/10/13 00:48:21;;;;;;;6.82;1.35;;;7.20;99.90;;;7.84;76.79;101291.84;5084799;28;20227;-76
2021/10/13 00:50:49;;;;;;;3.00;0.95;;;7.20;99.90;;;7.84;76.95;101296.22;5089724;28;20234;-76
2021/10/13 00:53:17;;;;;;;3.97;1.27;;;7.20;99.90;;;7.88;76.79;101297.84;5077502;28;20207;-75
2021/10/13 00:55:46;;;;;;;4.88;1.30;;;7.20;99.90;;;7.88;77.04;101292.66;5080246;28;20211;-75
2021/10/13 00:58:17;;;;;;;6.85;1.42;;;7.20;99.90;;;7.90;76.66;101296.97;5084820;28;20213;-75
2021/10/13 01:00:48;;;;;;;3.78;1.33;;;7.20;99.90;;;7.90;76.94;101296.09;5087520;28;20191;-76
2021/10/13 01:03:33;;;;;;;3.75;1.23;;;7.20;99.90;;;7.87;76.92;101306.56;5072148;28;20204;-76
2021/10/13 01:06:14;;;;;;;4.28;1.10;;;7.20;99.90;;;7.82;76.99;101295.38;5069900;28;20191;-77
2021/10/13 01:09:03;;;;;;;3.60;1.13;;;7.20;99.90;;;7.78;77.32;101307.59;5081285;28;20199;-77
2021/10/13 01:11:53;;;;;;;4.40;1.13;;;7.10;99.90;;;7.75;77.60;101301.56;5083892;28;20211;-77
2021/10/13 01:14:40;;;;;;;5.13;1.17;;;7.10;99.90;;;7.76;77.78;101303.28;5067951;28;20603;-76
2021/10/13 01:17:22;;;;;;;5.22;1.40;;;7.10;99.90;;;7.76;77.77;101303.28;5076459;28;20199;-75
2021/10/13 01:20:11;;;;;;;6.78;1.48;;;7.10;99.90;;;7.74;77.76;101305.91;5085222;28;20188;-74
2021/10/13 01:23:41;;;;;;;4.30;1.20;;;7.10;99.90;;;7.74;78.11;101310.28;5068429;28;20224;-78
2021/10/13 01:26:26;;;;;;;4.13;1.30;;;7.10;99.90;;;7.75;77.92;101311.97;5014681;28;20428;-78
2021/10/13 01:29:02;;;;;;;5.00;1.38;;;7.10;99.90;;;7.74;78.04;101320.69;5064374;28;20189;-76
2021/10/13 01:31:37;;;;;;;3.33;1.10;;;7.10;99.90;;;7.74;78.08;101320.69;5081083;28;20595;-77
2021/10/13 01:34:10;;;;;;;5.60;1.30;;;7.10;99.90;;;7.73;78.24;101322.44;5077388;28;20268;-76
2021/10/13 01:36:44;;;;;;;6.80;1.60;;;7.10;99.90;;;7.73;78.45;101324.16;5076805;28;20196;-75
2021/10/13 01:39:13;;;;;;;4.72;1.30;;;7.00;99.90;;;7.73;78.37;101321.56;5073525;28;20725;-76
2021/10/13 01:41:45;;;;;;;5.82;1.77;;;7.00;99.90;;;7.72;78.64;101327.66;5087966;28;20196;-76
2021/10/13 01:44:17;;;;;;;5.18;1.45;;;7.00;99.90;;;7.71;78.64;101331.13;5070266;28;20211;-78
2021/10/13 01:46:45;;;;;;;5.47;1.67;;;7.00;99.90;;;7.70;78.62;101329.44;5079583;28;20228;-76
2021/10/13 01:49:14;;;;;;;5.68;1.48;;;7.00;99.90;;;7.70;78.94;101329.44;5076906;28;20218;-77
2021/10/13 01:51:43;;;;;;;4.20;1.35;;;7.00;99.90;;;7.68;79.14;101332.91;5092635;28;20211;-77
2021/10/13 01:54:13;;;;;;;4.55;1.40;;;7.00;99.90;;;7.68;79.07;101335.50;5078637;28;20211;-77
2021/10/13 01:56:42;;;;;;;5.75;1.55;;;7.00;99.90;;;7.68;79.29;101339.00;5076547;28;20192;-76
2021/10/13 01:59:17;;;;;;;4.32;1.50;;;7.00;99.90;;;7.65;79.17;101338.16;5068378;28;20195;-76
2021/10/13 02:01:46;;;;;;;7.80;1.40;;;7.00;99.90;;;7.64;79.20;101348.59;5079941;28;20324;-75
2021/10/13 02:04:16;;;;;;;4.95;1.35;;;7.00;99.90;;;7.63;79.54;101349.50;5076121;28;20207;-76
2021/10/13 02:06:45;;;;;;;4.15;1.08;;;7.00;99.90;;;7.63;79.51;101337.31;5067687;28;20196;-77
2021/10/13 02:09:15;;;;;;;5.35;1.20;;;7.00;99.90;;;7.62;79.47;101348.63;5073174;28;20653;-77
2021/10/13 02:11:42;;;;;;;4.22;1.20;;;6.90;99.90;;;7.64;79.39;101351.22;5084816;28;20617;-76
2021/10/13 02:14:13;;;;;;;6.10;1.20;;;6.90;99.90;;;7.62;79.43;101346.03;5087301;28;20268;-78
2021/10/13 02:16:45;;;;;;;8.00;1.30;;;6.90;99.90;;;7.64;79.45;101346.00;5076288;28;20617;-75
2021/10/13 02:19:18;;;;;;;4.65;1.40;;;6.90;99.90;;;7.63;79.47;101346.91;5073913;28;20210;-76
2021/10/13 02:21:50;;;;;;;5.43;1.08;;;6.90;99.90;;;7.61;79.78;101352.13;5076876;28;20248;-76
2021/10/13 02:24:26;;;;;;;4.57;1.00;;;6.90;99.90;;;7.62;79.82;101347.75;5068877;28;20212;-78
2021/10/13 02:27:07;;;;;;;3.88;1.02;;;7.00;99.90;;;7.62;79.88;101351.25;5065902;28;20192;-76
2021/10/13 02:29:34;;;;;;;3.00;1.10;;;7.00;99.90;;;7.62;79.58;101359.06;5077476;28;20200;-77
2021/10/13 02:32:02;;;;;;;2.78;1.02;;;6.90;99.90;;;7.60;79.75;101355.59;5074660;28;20191;-78
2021/10/13 02:34:29;;;;;;;4.32;1.23;;;6.90;99.90;;;7.58;79.84;101366.94;5067086;28;20216;-77
2021/10/13 02:36:56;;;;;;;5.72;1.27;;;6.90;99.90;;;7.61;80.02;101357.34;5072243;28;20302;-76
2021/10/13 02:39:22;;;;;;;3.95;1.60;;;6.90;99.90;;;7.62;79.91;101353.84;5067651;28;20192;-77
2021/10/13 02:41:49;;;;;;;4.78;1.50;;;7.00;99.90;;;7.62;79.92;101372.06;5078848;28;20183;-76
2021/10/13 02:44:16;;;;;;;4.78;1.40;;;6.90;99.90;;;7.61;80.15;101378.19;5093596;28;20636;-76
2021/10/13 02:46:50;;;;;;;3.47;1.38;;;6.90;99.90;;;7.58;80.37;101373.00;5077478;28;20278;-77
2021/10/13 02:49:31;;;;;;;4.82;1.35;;;6.90;99.90;;;7.58;80.62;101373.00;5074412;28;20193;-76
2021/10/13 02:52:18;;;;;;;7.60;1.55;;;6.90;99.90;;;7.58;80.43;101370.38;5094858;28;20191;-76
2021/10/13 02:54:54;;;;;;;6.18;1.50;;;6.90;99.90;;;7.58;80.53;101383.41;5080216;28;20278;-75
2021/10/13 02:57:28;;;;;;;5.40;1.67;;;6.90;99.90;;;7.59;80.45;101382.53;5065300;28;20257;-76
2021/10/13 02:59:59;;;;;;;7.32;1.30;;;6.90;99.90;;;7.59;80.58;101379.06;5062599;28;20566;-77
2021/10/13 03:02:32;;;;;;;4.35;1.50;;;6.90;99.90;;;7.57;80.58;101386.91;5060395;28;20215;-75
2021/10/13 03:05:02;;;;;;;6.38;1.40;;;6.90;99.90;;;7.55;80.70;101382.63;5073334;28;20234;-76
2021/10/13 03:07:38;;;;;;;4.95;1.25;;;6.90;99.90;;;7.54;80.89;101384.34;5072379;28;20191;-77
2021/10/13 03:10:09;;;;;;;7.95;1.88;;;6.90;99.90;;;7.53;80.95;101390.41;5081762;28;20180;-77
2021/10/13 03:12:42;;;;;;;4.47;1.48;;;6.80;99.90;;;7.53;81.14;101398.22;5080491;28;20207;-79
2021/10/13 03:15:12;;;;;;;9.85;1.75;;;6.90;99.90;;;7.51;81.10;101396.56;5075242;28;20708;-75
2021/10/13 03:17:42;;;;;;;6.85;1.85;;;6.80;99.90;;;7.53;81.22;101398.22;5078357;28;20192;-76
2021/10/13 03:20:14;;;;;;;4.20;1.48;;;6.90;99.90;;;7.56;80.92;101405.16;5055385;28;20192;-76
2021/10/13 03:22:42;;;;;;;6.50;1.67;;;6.90;99.90;;;7.57;81.31;101409.47;5061246;28;20693;-78
2021/10/13 03:25:09;;;;;;;5.10;1.40;;;6.90;99.90;;;7.55;81.06;101413.88;5055374;28;20211;-78
2021/10/13 03:27:37;;;;;;;7.68;1.48;;;6.90;99.90;;;7.56;81.40;101416.44;5066979;28;20192;-76
2021/10/13 03:30:05;;;;;;;7.00;1.45;;;6.80;99.90;;;7.55;81.16;101409.50;5051486;28;20200;-76
2021/10/13 03:32:32;;;;;;;4.75;1.55;;;6.90;99.90;;;7.51;81.20;101412.16;5079609;28;20572;-78
2021/10/13 03:34:59;;;;;;;4.43;1.60;;;6.80;99.90;;;7.44;81.28;101406.19;5071731;28;20203;-77
2021/10/13 03:37:27;;;;;;;5.00;1.60;;;6.80;99.90;;;7.41;81.50;101416.66;5069914;28;20204;-76
2021/10/13 03:39:56;;;;;;;6.80;1.80;;;6.70;99.90;;;7.40;81.65;101417.50;5076014;28;20196;-76
2021/10/13 03:42:23;;;;;;;8.57;1.70;;;6.70;99.90;;;7.38;81.58;101424.47;5057720;28;20641;-77
2021/10/13 03:44:49;;;;;;;6.00;1.88;;;6.70;99.90;;;7.36;81.71;101423.66;5053602;28;20197;-74
2021/10/13 03:47:16;;;;;;;4.30;1.50;;;6.70;99.90;;;7.35;81.95;101432.34;5053696;28;20192;-77
2021/10/13 03:49:43;;;;;;;4.90;1.42;;;6.70;99.90;;;7.30;81.87;101423.72;5058143;28;20196;-75
2021/10/13 03:52:10;;;;;;;5.13;1.30;;;6.70;99.90;;;7.28;81.84;101429.84;5058669;28;20200;-76
2021/10/13 03:54:38;;;;;;;3.97;1.40;;;6.70;99.90;;;7.27;82.19;101439.38;5060876;28;20213;-76
2021/10/13 03:57:05;;;;;;;5.90;1.95;;;6.60;99.90;;;7.26;82.16;101437.69;5061403;28;20192;-77
2021/10/13 03:59:31;;;;;;;6.85;1.60;;;6.60;99.90;;;7.26;82.03;101437.69;5061178;28;20199;-76
2021/10/13 04:01:58;;;;;;;4.10;1.40;;;6.60;99.90;;;7.24;82.11;101439.44;5068762;28;20788;-76
2021/10/13 04:04:25;;;;;;;8.45;2.35;;;6.60;99.90;;;7.18;82.23;101443.84;5064531;28;20212;-77
2021/10/13 04:06:52;;;;;;;5.25;1.60;;;6.60;99.90;;;7.16;82.28;101440.41;5070311;28;20196;-76
2021/10/13 04:09:18;;;;;;;5.57;1.90;;;6.50;99.90;;;7.18;82.60;101446.44;5066141;28;20204;-76
2021/10/13 04:11:46;;;;;;;7.15;1.95;;;6.60;99.90;;;7.19;82.76;101440.34;5070874;28;20212;-77
2021/10/13 04:14:13;;;;;;;6.97;1.80;;;6.60;99.90;;;7.21;82.63;101449.00;5063708;28;20220;-77
2021/10/13 04:16:40;;;;;;;4.72;1.60;;;6.60;99.90;;;7.21;82.54;101447.28;5067843;28;20197;-76
2021/10/13 04:19:06;;;;;;;6.43;1.70;;;6.60;99.90;;;7.20;82.53;101455.94;5073033;28;20538;-76
2021/10/13 04:21:33;;;;;;;9.20;1.90;;;6.50;99.90;;;7.20;82.70;101455.13;5075309;28;20655;-77
2021/10/13 04:24:00;;;;;;;7.05;2.10;;;6.50;99.90;;;7.22;82.72;101454.19;5069870;28;20697;-77
2021/10/13 04:26:27;;;;;;;5.55;1.98;;;6.60;99.90;;;7.24;82.70;101460.25;5069699;28;20659;-77
2021/10/13 04:28:58;;;;;;;7.60;2.15;;;6.60;99.90;;;7.22;82.64;101456.78;5074560;28;20196;-77
2021/10/13 04:31:25;;;;;;;6.38;1.80;;;6.60;99.90;;;7.22;82.93;101456.78;5076248;28;20681;-78
2021/10/13 04:33:51;;;;;;;6.38;1.67;;;6.60;99.90;;;7.25;82.79;101461.13;5078297;28;20211;-75
2021/10/13 04:36:18;;;;;;;5.88;1.88;;;6.60;99.90;;;7.26;82.89;101453.28;5078443;28;20207;-75
2021/10/13 04:38:45;;;;;;;7.03;2.20;;;6.70;99.90;;;7.30;82.61;101457.56;5068917;28;20188;-76
2021/10/13 04:41:11;;;;;;;8.13;1.73;;;6.70;99.90;;;7.33;82.49;101449.72;5075629;28;20249;-76
2021/10/13 04:43:38;;;;;;;7.78;1.95;;;6.80;99.90;;;7.33;82.77;101454.91;5074488;28;20345;-76
2021/10/13 04:46:06;;;;;;;4.90;1.70;;;6.80;99.90;;;7.33;82.57;101464.50;5076482;28;20196;-76
2021/10/13 04:48:33;;;;;;;7.60;2.00;;;6.80;99.90;;;7.30;82.49;101454.97;5072728;28;20192;-77
2021/10/13 04:51:02;;;;;;;5.28;1.90;;;6.70;99.90;;;7.31;82.53;101450.63;5064862;28;20184;-78
2021/10/13 04:53:29;;;;;;;7.00;2.08;;;6.70;99.90;;;7.29;82.32;101453.25;5073177;28;20218;-75
2021/10/13 04:55:56;;;;;;;6.57;2.38;;;6.70;99.90;;;7.20;82.51;101457.72;5081062;28;20215;-78
2021/10/13 04:58:23;;;;;;;7.10;2.00;;;6.60;99.90;;;7.14;82.61;101458.63;5072263;28;20673;-77
2021/10/13 05:00:50;;;;;;;8.40;2.38;;;6.60;99.90;;;7.14;82.83;101458.63;5072277;28;20234;-78
2021/10/13 05:03:18;;;;;;;7.05;2.10;;;6.60;99.90;;;7.11;82.80;101458.69;5075223;28;20269;-78
2021/10/13 05:05:45;;;;;;;9.00;2.58;;;6.50;99.90;;;7.09;82.68;101460.44;5074037;28;20191;-77
2021/10/13 05:08:11;;;;;;;7.07;2.50;;;6.50;99.90;;;7.08;83.19;101458.69;5072638;28;20545;-79
2021/10/13 05:10:38;;;;;;;9.43;2.75;;;6.50;99.90;;;7.07;83.10;101456.97;5075048;28;20255;-77
2021/10/13 05:13:05;;;;;;;7.82;2.65;;;6.50;99.90;;;7.03;83.31;101455.28;5069153;28;20220;-79
2021/10/13 05:15:33;;;;;;;9.40;3.03;;;6.40;99.90;;;7.05;83.35;101466.53;5075067;28;20223;-79
2021/10/13 05:18:00;;;;;;;11.57;2.78;;;6.40;99.90;;;7.00;82.99;101457.06;5074633;28;20192;-79
2021/10/13 05:20:28;;;;;;;12.13;2.92;;;6.40;99.90;;;6.95;83.03;101466.69;5070938;28;20207;-79
2021/10/13 05:22:55;;;;;;;9.13;3.10;;;6.30;99.90;;;6.97;83.39;101465.75;5074362;28;20208;-79
2021/10/13 05:25:22;;;;;;;9.68;3.00;;;6.30;99.90;;;6.95;83.09;101462.31;5081011;28;20208;-79
2021/10/13 05:27:49;;;;;;;11.93;3.17;;;6.30;99.90;;;6.97;83.22;101468.38;5067388;28;20187;-77
2021/10/13 05:30:16;;;;;;;10.18;2.67;;;6.30;99.90;;;6.97;83.35;101470.97;5076474;28;20209;-79
2021/10/13 05:32:42;;;;;;;9.55;3.22;;;6.30;99.90;;;6.93;83.06;101473.63;5077588;28;20211;-77
2021/10/13 05:35:09;;;;;;;9.93;3.13;;;6.30;99.90;;;6.89;83.08;101474.53;5071165;28;20215;-76
2021/10/13 05:37:38;;;;;;;8.05;2.65;;;6.30;99.90;;;6.91;83.48;101489.25;5072182;28;20305;-81
2021/10/13 05:40:06;;;;;;;8.52;2.88;;;6.30;99.90;;;6.96;83.29;101492.66;5059557;28;20193;-78
2021/10/13 05:42:33;;;;;;;14.90;5.30;;;6.30;99.90;;;6.97;82.93;101486.56;5077013;28;20211;-78
2021/10/13 05:45:00;;;;;;;12.57;4.10;;;6.30;99.90;;;6.99;83.29;101492.63;5084213;28;20196;-79
2021/10/13 05:47:27;;;;;;;10.25;3.10;;;6.30;99.90;;;6.97;83.06;101496.09;5093016;28;20172;-79
2021/10/13 05:49:54;;;;;;;9.05;3.15;;;6.30;99.90;;;6.91;83.16;101502.25;5071490;28;20191;-78
2021/10/13 05:52:21;;;;;;;9.07;2.95;;;6.30;99.90;;;6.89;83.29;101509.22;5069909;28;20224;-78
2021/10/13 05:54:49;;;;;;;9.65;2.92;;;6.30;99.90;;;6.86;83.16;101514.44;5064083;28;20204;-79
2021/10/13 05:57:16;;;;;;;9.85;3.15;;;6.30;99.90;;;6.88;83.54;101517.88;5063679;28;20180;-78
2021/10/13 05:59:46;;;;;;;9.98;2.90;;;6.30;99.90;;;6.93;83.73;101531.69;5067745;28;20250;-79
2021/10/13 06:02:13;;;;;;;11.70;3.42;;;6.40;99.90;;;6.93;83.22;101536.91;5068778;28;20192;-78
2021/10/13 06:04:40;;;;;;;8.57;3.10;;;6.40;99.90;;;6.97;83.37;101528.19;5069117;28;20231;-77
2021/10/13 06:07:06;;;;;;;9.40;3.00;;;6.50;99.90;;;7.01;83.35;101535.09;5065982;28;20241;-78
2021/10/13 06:09:33;;;;;;;10.60;3.13;;;6.50;99.90;;;7.11;83.36;101539.34;5074451;28;20602;-78
2021/10/13 06:12:02;;;;;;;10.88;3.22;;;6.50;99.90;;;7.16;82.97;101544.50;5078098;28;20203;-78
2021/10/13 06:14:29;;;;;;;11.23;3.75;;;6.60;99.90;;;7.20;82.72;101549.63;5059427;28;20238;-79
2021/10/13 06:16:55;;;;;;;11.50;3.30;;;6.60;99.90;;;7.23;82.93;101557.41;5070454;28;20208;-78
2021/10/13 06:19:22;;;;;;;9.63;3.05;;;6.70;99.90;;;7.26;82.46;101557.41;5068430;28;20515;-77
2021/10/13 06:21:49;;;;;;;9.13;3.40;;;6.70;99.90;;;7.26;82.64;101557.41;5084680;28;20199;-78
2021/10/13 06:24:16;;;;;;;10.60;3.47;;;6.70;99.90;;;7.27;82.71;101555.63;5071568;28;20621;-79
2021/10/13 06:26:43;;;;;;;10.63;3.35;;;6.80;99.90;;;7.33;82.49;101564.25;5079727;28;20243;-78
2021/10/13 06:29:11;;;;;;;9.60;3.28;;;6.80;99.90;;;7.35;82.47;101565.09;5066979;28;20189;-78
2021/10/13 06:31:38;;;;;;;9.90;3.30;;;6.90;99.90;;;7.38;82.37;101567.66;5069705;28;20215;-78
2021/10/13 06:34:05;;;;;;;11.15;3.53;;;6.90;99.90;;;7.40;82.24;101571.13;5071742;28;20204;-79
2021/10/13 06:36:32;;;;;;;9.88;3.10;;;6.90;99.90;;;7.43;82.32;101565.03;5073323;28;20223;-79
2021/10/13 06:38:58;;;;;;;8.98;3.20;;;6.90;99.90;;;7.47;82.22;101567.56;5065486;28;20188;-77
2021/10/13 06:41:27;;;;;;;10.48;3.47;;;7.00;99.90;;;7.52;82.00;101572.72;5090576;28;20619;-76
2021/10/13 06:43:54;;;;;;;10.23;3.55;;;7.00;99.90;;;7.57;82.18;101579.59;5065159;28;20211;-77
2021/10/13 06:46:22;;;;;;;9.52;3.55;;;7.00;99.90;;;7.59;82.06;101574.38;5072948;28;20207;-76
2021/10/13 06:48:49;;;;;;;11.35;3.53;;;7.00;99.90;;;7.58;81.38;101581.31;5061981;28;20219;-77
2021/10/13 06:51:15;;;;;;;12.18;3.70;;;7.00;99.90;;;7.54;81.43;101586.59;5070142;28;20602;-77
2021/10/13 06:53:46;;;;;;;9.50;3.33;;;7.00;99.90;;;7.53;81.69;101592.69;5058489;28;20281;-76
2021/10/13 06:56:13;;;;;;;11.23;3.65;;;7.00;99.90;;;7.56;81.73;101593.53;5064664;28;20219;-73
2021/10/13 06:58:40;;;;;;;11.73;3.40;;;7.10;99.90;;;7.62;81.84;101598.66;5058165;28;20200;-76
2021/10/13 07:01:07;;;;;;;9.55;3.55;;;7.10;99.90;;;7.64;81.58;101594.28;5056485;28;20193;-78
2021/10/13 07:03:35;;;;;;;10.85;4.07;;;7.10;99.90;;;7.68;81.33;101591.66;5068083;28;20575;-77
2021/10/13 07:06:02;;;;;;;12.68;4.05;;;7.20;99.90;;;7.68;81.44;101593.34;5066480;28;20219;-78
2021/10/13 07:08:28;;;;;;;13.13;3.78;;;7.10;99.90;;;7.71;81.35;101596.81;5067065;28;20204;-77
2021/10/13 07:10:55;;;;;;;9.75;3.78;;;7.20;99.90;;;7.72;81.60;101607.22;5072982;28;20211;-76
2021/10/13 07:13:22;;;;;;;10.57;3.90;;;7.20;99.90;;;7.71;81.20;101602.91;5061269;28;20217;-75
2021/10/13 07:15:49;;;;;;;10.43;3.50;;;7.20;99.90;;;7.70;81.48;101605.53;5063203;28;20204;-77
2021/10/13 07:18:16;;;;;;;10.18;3.63;;;7.20;99.90;;;7.68;81.41;101595.97;5064785;28;20193;-77
2021/10/13 07:20:44;;;;;;;13.13;3.55;;;7.20;99.90;;;7.75;81.50;101598.50;5073225;28;20650;-77
2021/10/13 07:23:11;;;;;;;11.60;4.25;;;7.30;99.90;;;7.82;81.50;101605.38;5062791;28;20261;-77
2021/10/13 07:25:38;;;;;;;10.40;3.83;;;7.30;99.90;;;7.85;81.50;101600.13;5076924;28;20200;-77
2021/10/13 07:28:07;;;;;;;13.30;3.92;;;7.40;99.90;;;7.87;81.37;101603.59;5061434;28;20199;-77
2021/10/13 07:30:34;;;;;;;12.77;4.50;;;7.40;99.90;;;7.87;81.21;101603.59;5072960;28;20224;-77
2021/10/13 07:33:01;;;;;;;12.70;4.35;;;7.40;99.90;;;7.90;81.30;101604.41;5079106;28;20215;-78
2021/10/13 07:35:29;;;;;;;11.02;3.80;;;7.50;99.90;;;7.97;81.22;101607.81;5062225;28;20220;-76
2021/10/13 07:37:58;;;;;;;12.30;4.18;;;7.60;99.90;;;8.04;80.96;101612.06;5075733;28;20202;-77
2021/10/13 07:40:26;;;;;;;12.88;4.18;;;7.60;99.90;;;8.06;81.22;101608.53;5073613;28;20189;-75
2021/10/13 07:42:53;;;;;;;10.40;3.58;;;7.70;99.90;;;8.15;81.22;101615.38;5072125;28;20752;-77
2021/10/13 07:45:22;;;;;;;13.35;4.28;;;7.70;99.90;;;8.18;81.08;101621.41;5059950;28;20196;-77
2021/10/13 07:47:49;;;;;;;11.93;4.13;;;7.80;99.90;;;8.22;80.91;101624.84;5066014;28;20219;-77
2021/10/13 07:50:17;;;;;;;14.77;5.00;;;7.80;99.90;;;8.25;80.99;101619.63;5058044;28;20187;-76
2021/10/13 07:52:44;;;;;;;11.48;4.35;;;7.90;99.90;;;8.30;80.98;101626.50;5055561;28;20231;-77
2021/10/13 07:55:12;;;;;;;12.90;4.18;;;7.90;99.90;;;8.32;81.10;101618.66;5058053;28;20212;-76
2021/10/13 07:57:39;;;;;;;11.00;3.70;;;8.00;99.90;;;8.39;80.67;101628.97;5054528;28;20218;-78
2021/10/13 08:00:08;;;;;;;12.13;4.32;;;8.00;99.90;;;8.44;80.89;101618.50;5069436;28;20593;-77
2021/10/13 08:02:37;;;;;;;11.10;4.00;;;8.10;99.90;;;8.53;80.91;101623.56;5065601;28;20724;-76
2021/10/13 08:05:05;;;;;;;11.43;4.22;;;8.20;99.90;;;8.62;80.59;101631.25;5078553;28;20195;-76
2021/10/13 08:07:32;;;;;;;12.15;4.35;;;8.20;99.90;;;8.74;80.56;101623.25;5058690;28;20216;-78
2021/10/13 08:09:59;;;;;;;13.15;4.07;;;8.30;99.90;;;8.79;80.38;101616.22;5066851;28;20249;-76
2021/10/13 08:12:27;;;;;;;10.27;3.78;;;8.40;99.90;;;8.79;80.10;101624.88;5053852;28;20212;-78
2021/10/13 08:14:54;;;;;;;11.43;3.92;;;8.40;99.90;;;8.81;80.12;101619.63;5056206;28;20200;-76
2021/10/13 08:17:21;;;;;;;13.23;4.22;;;8.40;99.90;;;8.82;80.20;101618.78;5074736;28;20200;-76
2021/10/13 08:19:47;;;;;;;12.18;4.18;;;8.40;99.90;;;8.85;80.41;101624.81;5063245;28;20188;-76
2021/10/13 08:22:14;;;;;;;13.98;3.95;;;8.40;99.90;;;8.89;80.13;101621.25;5064682;28;20200;-76
2021/10/13 08:24:41;;;;;;;13.55;4.20;;;8.40;99.90;;;8.98;80.35;101627.19;5066365;28;20220;-76
2021/10/13 08:27:08;;;;;;;11.20;3.90;;;8.50;99.90;;;9.05;79.99;101624.47;5058303;28;21690;-76
2021/10/13 08:29:36;;;;;;;12.07;4.80;;;8.60;99.90;;;9.14;79.78;101626.94;5072478;28;20222;-75
2021/10/13 08:32:04;;;;;;;12.05;4.45;;;8.70;99.90;;;9.22;79.84;101627.66;5076150;28;20184;-75
2021/10/13 08:34:31;;;;;;;13.07;4.13;;;8.80;99.90;;;9.30;79.58;101630.13;5070076;28;20734;-75
2021/10/13 08:36:58;;;;;;;13.90;5.22;;;8.90;99.90;;;9.38;79.70;101634.34;5074195;28;20212;-73
2021/10/13 08:39:25;;;;;;;13.93;4.70;;;8.90;99.90;;;9.50;79.26;101630.63;5074013;28;20192;-73
2021/10/13 08:41:51;;;;;;;12.15;4.45;;;9.00;99.90;;;9.61;79.14;101639.16;5077630;28;20240;-76
2021/10/13 08:44:19;;;;;;;18.00;6.90;;;9.10;99.90;;;9.72;78.90;101639.81;5079586;28;20220;-75
2021/10/13 08:46:47;;;;;;;21.58;7.32;;;9.20;99.90;;;9.81;78.91;101645.72;5055996;28;20188;-74
2021/10/13 08:49:13;;;;;;;14.80;5.20;;;9.30;99.90;;;9.91;78.53;101649.88;5073779;28;20189;-73
2021/10/13 08:51:41;;;;;;;17.58;6.50;;;9.40;99.90;;;9.98;78.13;101655.84;5061216;28;20254;-73
2021/10/13 08:54:13;;;;;;;22.23;8.20;;;9.50;99.90;;;10.04;77.93;101653.97;5072001;28;22046;-75
2021/10/13 08:56:40;;;;;;;18.75;6.38;;;9.50;99.90;;;10.14;77.84;101652.06;5056651;28;20231;-74
2021/10/13 08:59:07;;;;;;;13.65;4.20;;;9.70;99.90;;;10.23;77.77;101659.69;5068274;28;20195;-74
2021/10/13 09:01:33;;;;;;;12.57;3.60;;;9.80;99.90;;;10.31;77.30;101649.97;5060892;28;20192;-74
2021/10/13 09:04:04;;;;;;;9.55;3.30;;;9.80;99.90;;;10.34;76.75;101660.34;5064666;28;20211;-73
2021/10/13 09:06:33;;;;;;;9.98;3.05;;;9.90;99.90;;;10.38;76.68;101659.41;5066520;28;20242;-71
2021/10/13 09:09:04;;;;;;;9.38;3.17;;;10.00;99.90;;;10.42;76.39;101661.06;5058650;28;20196;-73
2021/10/13 09:11:40;;;;;;;8.98;3.20;;;10.00;99.90;;;10.40;76.29;101665.44;5055817;28;20215;-71
2021/10/13 09:14:11;;;;;;;11.82;4.05;;;10.00;99.90;;;10.42;76.09;101668.03;5058798;28;20210;-77
2021/10/13 09:16:55;;;;;;;9.95;3.38;;;10.00;99.90;;;10.42;76.10;101663.66;5067413;28;20209;-76
2021/10/13 09:19:27;;;;;;;12.35;3.80;;;10.00;99.90;;;10.43;75.95;101669.78;5074560;28;20204;-74
2021/10/13 09:21:57;;;;;;;12.48;3.75;;;10.00;99.90;;;10.48;76.13;101660.94;5076522;28;20195;-76
2021/10/13 09:24:26;;;;;;;12.30;4.13;;;10.10;99.90;;;10.53;76.29;101658.22;5070368;28;20222;-75
2021/10/13 09:26:55;;;;;;;10.40;3.80;;;10.10;99.90;;;10.57;76.24;101655.47;5057765;28;20192;-73
2021/10/13 09:29:22;;;;;;;11.50;3.67;;;10.10;99.90;;;10.62;76.11;101658.84;5064603;28;20199;-72
2021/10/13 09:32:02;;;;;;;12.00;4.30;;;10.20;99.90;;;10.68;75.74;101658.72;5061698;28;20538;-74
2021/10/13 09:34:30;;;;;;;10.40;4.18;;;10.30;99.90;;;10.75;75.78;101644.59;5068127;28;20215;-74
2021/10/13 09:37:01;;;;;;;11.90;3.78;;;10.30;99.90;;;10.84;75.68;101659.22;5056594;28;20220;-73
2021/10/13 09:39:31;;;;;;;12.23;3.95;;;10.40;99.90;;;10.90;75.67;101653.84;5057764;28;20246;-73
2021/10/13 09:42:05;;;;;;;9.82;3.65;;;10.50;99.90;;;10.95;75.51;101658.06;5060881;28;20242;-76
2021/10/13 09:44:36;;;;;;;11.30;3.50;;;10.50;99.90;;;11.02;75.36;101664.00;5076787;28;20218;-73
2021/10/13 09:47:06;;;;;;;10.55;3.25;;;10.60;99.90;;;11.04;75.40;101668.34;5068888;28;20207;-73
2021/10/13 09:49:38;;;;;;;11.98;4.38;;;10.60;99.90;;;11.08;74.89;101676.97;5073422;28;20222;-73
2021/10/13 09:52:12;;;;;;;11.52;3.60;;;10.70;99.90;;;11.16;74.84;101677.66;5065089;28;20664;-70
2021/10/13 09:54:43;;;;;;;9.45;3.30;;;10.70;99.90;;;11.15;74.67;101670.72;5060346;28;20227;-73
2021/10/13 09:57:19;;;;;;;9.73;3.20;;;10.70;99.90;;;11.16;74.54;101681.16;5058761;28;20207;-72
2021/10/13 10:00:11;;;;;;;9.38;3.13;;;10.80;99.90;;;11.21;74.09;101681.91;5070014;28;20215;-73
2021/10/13 10:02:40;;;;;;;11.25;3.42;;;10.80;99.90;;;11.27;74.23;101686.09;5066589;28;20259;-72
2021/10/13 10:05:16;;;;;;;10.15;3.55;;;10.90;99.90;;;11.34;74.31;101687.69;5069090;28;20191;-74
2021/10/13 10:07:44;;;;;;;10.40;3.03;;;11.00;99.90;;;11.36;73.92;101688.50;5058045;28;20204;-74
2021/10/13 10:10:15;;;;;;;10.60;2.88;;;11.00;99.90;;;11.35;73.73;101690.25;5067004;28;20227;-72
2021/10/13 10:13:05;;;;;;;10.57;3.42;;;11.00;99.90;;;11.39;74.11;101691.91;5069566;28;20228;-73
2021/10/13 10:15:37;;;;;;;11.52;3.38;;;11.00;99.90;;;11.43;73.97;101692.69;5055795;28;20696;-73
2021/10/13 10:18:31;;;;;;;9.40;3.25;;;11.00;99.90;;;11.43;73.93;101684.84;5063325;28;20191;-75
2021/10/13 10:21:17;;;;;;;8.38;2.90;;;11.00;99.90;;;11.36;73.75;101681.50;5058894;28;20192;-73
2021/10/13 10:23:46;;;;;;;10.77;3.22;;;11.00;99.90;;;11.37;73.63;101682.34;5071313;28;20280;-72
2021/10/13 10:26:34;;;;;;;7.65;2.95;;;11.00;99.90;;;11.41;73.83;101681.38;5057576;28;20200;-72
2021/10/13 10:29:11;;;;;;;10.05;2.83;;;11.00;99.90;;;11.48;73.37;101685.59;5069061;28;20240;-73
2021/10/13 10:31:43;;;;;;;10.10;3.30;;;11.10;99.90;;;11.54;73.57;101685.41;5055583;28;20191;-71
2021/10/13 10:34:16;;;;;;;9.35;2.75;;;11.10;99.90;;;11.59;73.55;101687.94;5059032;28;20291;-71